Time;durP1;ratioP1;P1;durP2;ratioP2;P2;SDS_P1;SDS_P2;PMS_P1;PMS_P2;Temp;Humidity;BMP_temperature;BMP_pressure;BME280_temperature;BME280_humidity;BME280_pressure;Samples;Min_cycle;Max_cycle;Signal;HPM_P1;HPM_P2
2023/04/28 00:02:15;;;;;;;;;;;4.60;99.90;;;;;;5075361;28;20385;-52
2023/04/28 00:04:41;;;;;;;;;;;4.60;99.90;;;;;;5075891;28;20254;-52
2023/04/28 00:07:07;;;;;;;;;;;4.60;99.90;;;;;;5075691;28;20287;-52
2023/04/28 00:09:33;;;;;;;;;;;4.60;99.90;;;;;;5075882;28;19912;-52
2023/04/28 00:11:59;;;;;;;;;;;4.70;99.90;;;;;;5075528;28;20262;-52
2023/04/28 00:14:25;;;;;;;;;;;4.70;99.90;;;;;;5075429;28;19924;-52
2023/04/28 00:16:50;;;;;;;;;;;4.80;99.90;;;;;;5075344;28;19913;-52
2023/04/28 00:19:16;;;;;;;;;;;4.70;99.90;;;;;;5075545;28;19912;-52
2023/04/28 00:21:42;;;;;;;;;;;4.70;99.90;;;;;;5075440;28;19912;-52
2023/04/28 00:24:08;;;;;;;;;;;4.80;99.90;;;;;;5075374;28;20370;-52
2023/04/28 00:26:33;;;;;;;;;;;4.80;99.90;;;;;;5075294;28;20343;-52
2023/04/28 00:28:59;;;;;;;;;;;4.80;99.90;;;;;;5075390;28;20067;-52
2023/04/28 00:31:25;;;;;;;;;;;4.80;99.90;;;;;;5075227;28;19916;-52
2023/04/28 00:33:51;;;;;;;;;;;4.70;99.90;;;;;;5075246;28;20289;-52
2023/04/28 00:36:17;;;;;;;;;;;4.50;99.90;;;;;;5075040;28;19920;-52
2023/04/28 00:38:42;;;;;;;;;;;4.50;99.90;;;;;;5075223;28;19973;-52
2023/04/28 00:41:09;;;;;;;;;;;4.60;99.90;;;;;;5057054;28;19916;-52
2023/04/28 00:43:48;;;;;;;;;;;4.60;99.90;;;;;;5075254;28;19916;-52
2023/04/28 00:46:21;;;;;;;;;;;4.70;99.90;;;;;;5075144;28;19917;-52
2023/04/28 00:48:47;;;;;;;;;;;4.70;99.90;;;;;;5075033;28;19912;-52
2023/04/28 00:51:14;;;;;;;;;;;4.60;99.90;;;;;;5057271;28;19919;-52
2023/04/28 00:53:40;;;;;;;;;;;4.70;99.90;;;;;;5074939;28;19948;-52
2023/04/28 00:56:06;;;;;;;;;;;4.70;99.90;;;;;;5074920;28;20007;-52
2023/04/28 00:58:33;;;;;;;;;;;4.70;99.90;;;;;;5074534;28;19971;-52
2023/04/28 01:01:06;;;;;;;;;;;4.70;99.90;;;;;;5056729;28;19912;-52
2023/04/28 01:03:36;;;;;;;;;;;4.70;99.90;;;;;;5074759;28;20344;-52
2023/04/28 01:06:06;;;;;;;;;;;4.70;99.90;;;;;;5056887;28;19920;-52
2023/04/28 01:08:34;;;;;;;;;;;4.60;99.90;;;;;;5056910;28;19912;-52
2023/04/28 01:11:01;;;;;;;;;;;4.50;99.90;;;;;;5056736;28;19915;-52
2023/04/28 01:13:59;;;;;;;;;;;4.40;99.90;;;;;;5066387;28;19916;-52
2023/04/28 01:16:27;;;;;;;;;;;4.40;99.90;;;;;;5056729;28;19943;-52
2023/04/28 01:18:54;;;;;;;;;;;4.30;99.90;;;;;;5056576;28;19920;-52
2023/04/28 01:21:24;;;;;;;;;;;4.20;99.90;;;;;;5056756;28;19913;-52
2023/04/28 01:23:51;;;;;;;;;;;4.00;99.90;;;;;;5056620;28;19919;-52
2023/04/28 01:26:17;;;;;;;;;;;4.00;99.90;;;;;;5074597;28;19912;-52
2023/04/28 01:28:42;;;;;;;;;;;4.00;99.90;;;;;;5056694;28;20388;-52
2023/04/28 01:31:08;;;;;;;;;;;4.10;99.90;;;;;;5090195;28;20358;-52
2023/04/28 01:33:35;;;;;;;;;;;4.10;99.90;;;;;;5057000;28;19959;-52
2023/04/28 01:36:01;;;;;;;;;;;4.20;99.90;;;;;;5090002;28;19943;-52
2023/04/28 01:38:27;;;;;;;;;;;4.20;99.90;;;;;;5056505;28;20025;-52
2023/04/28 01:40:54;;;;;;;;;;;4.10;99.90;;;;;;5056413;28;19916;-52
2023/04/28 01:43:20;;;;;;;;;;;4.00;99.90;;;;;;5090143;28;19913;-52
2023/04/28 01:45:45;;;;;;;;;;;4.00;99.90;;;;;;5056568;28;20373;-52
2023/04/28 01:48:11;;;;;;;;;;;4.10;99.90;;;;;;5074620;28;19913;-52
2023/04/28 01:50:37;;;;;;;;;;;4.10;99.90;;;;;;5074371;28;20410;-52
2023/04/28 01:53:03;;;;;;;;;;;4.10;99.90;;;;;;5074344;28;19912;-52
2023/04/28 01:55:29;;;;;;;;;;;4.10;99.90;;;;;;5056184;28;19919;-52
2023/04/28 01:57:57;;;;;;;;;;;4.00;99.90;;;;;;5056435;28;20047;-52
2023/04/28 02:00:23;;;;;;;;;;;4.10;99.90;;;;;;5074275;28;20381;-52
2023/04/28 02:02:50;;;;;;;;;;;4.10;99.90;;;;;;5056257;28;20290;-52
2023/04/28 02:05:16;;;;;;;;;;;4.10;99.90;;;;;;5056334;28;19924;-52
2023/04/28 02:07:42;;;;;;;;;;;4.20;99.90;;;;;;5056146;28;19915;-52
2023/04/28 02:10:07;;;;;;;;;;;4.30;99.90;;;;;;5077671;28;20284;-52
2023/04/28 02:12:33;;;;;;;;;;;4.30;99.90;;;;;;5060215;28;19987;-52
2023/04/28 02:14:59;;;;;;;;;;;4.30;99.90;;;;;;5059740;28;20382;-52
2023/04/28 02:17:28;;;;;;;;;;;4.20;99.90;;;;;;5059907;28;19921;-52
2023/04/28 02:19:55;;;;;;;;;;;4.30;99.90;;;;;;5077859;28;19912;-52
2023/04/28 02:22:21;;;;;;;;;;;4.30;99.90;;;;;;5077814;28;19934;-52
2023/04/28 02:24:47;;;;;;;;;;;4.30;99.90;;;;;;5077816;28;20327;-52
2023/04/28 02:27:13;;;;;;;;;;;4.20;99.90;;;;;;5077974;28;19999;-52
2023/04/28 02:29:39;;;;;;;;;;;4.10;99.90;;;;;;5059636;28;19920;-52
2023/04/28 02:32:05;;;;;;;;;;;4.10;99.90;;;;;;5077476;28;20595;-52
2023/04/28 02:34:31;;;;;;;;;;;4.10;99.90;;;;;;5093126;28;19936;-52
2023/04/28 02:36:56;;;;;;;;;;;3.90;99.90;;;;;;5059576;28;20003;-52
2023/04/28 02:39:25;;;;;;;;;;;3.90;99.90;;;;;;5077226;28;19917;-52
2023/04/28 02:41:52;;;;;;;;;;;3.90;99.90;;;;;;5092947;28;20356;-52
2023/04/28 02:44:17;;;;;;;;;;;3.90;99.90;;;;;;5093063;28;19912;-52
2023/04/28 02:46:43;;;;;;;;;;;4.00;99.90;;;;;;5093073;28;19917;-52
2023/04/28 02:49:09;;;;;;;;;;;4.00;99.90;;;;;;5077500;28;20003;-52
2023/04/28 02:51:35;;;;;;;;;;;4.10;99.90;;;;;;5059278;28;19931;-52
2023/04/28 02:54:01;;;;;;;;;;;4.10;99.90;;;;;;5077195;28;19932;-52
2023/04/28 02:56:28;;;;;;;;;;;4.00;99.90;;;;;;5059106;28;20396;-52
2023/04/28 02:58:55;;;;;;;;;;;4.00;99.90;;;;;;5059192;28;19917;-52
2023/04/28 03:01:22;;;;;;;;;;;3.90;99.90;;;;;;5092656;28;19948;-52
2023/04/28 03:03:47;;;;;;;;;;;3.90;99.90;;;;;;5076839;28;19951;-52
2023/04/28 03:06:13;;;;;;;;;;;3.80;99.90;;;;;;5077061;28;19923;-52
2023/04/28 03:08:39;;;;;;;;;;;3.70;99.90;;;;;;5076800;28;19917;-52
2023/04/28 03:11:05;;;;;;;;;;;3.70;99.90;;;;;;5058901;28;20486;-52
2023/04/28 03:13:31;;;;;;;;;;;3.80;99.90;;;;;;5076862;28;20057;-52
2023/04/28 03:15:57;;;;;;;;;;;3.70;99.90;;;;;;5076562;28;19918;-52
2023/04/28 03:18:23;;;;;;;;;;;3.70;99.90;;;;;;5058729;28;20330;-52
2023/04/28 03:20:49;;;;;;;;;;;3.60;99.90;;;;;;5076018;28;19917;-52
2023/04/28 03:23:14;;;;;;;;;;;3.50;99.90;;;;;;5058782;28;19938;-52
2023/04/28 03:25:40;;;;;;;;;;;3.50;99.90;;;;;;5076624;28;20160;-52
2023/04/28 03:28:06;;;;;;;;;;;3.50;99.90;;;;;;5058563;28;19967;-52
2023/04/28 03:30:32;;;;;;;;;;;3.60;99.90;;;;;;5058544;28;19916;-52
2023/04/28 03:32:58;;;;;;;;;;;3.60;99.90;;;;;;5076431;28;19959;-52
2023/04/28 03:35:24;;;;;;;;;;;3.50;99.90;;;;;;5058373;28;20377;-52
2023/04/28 03:37:50;;;;;;;;;;;3.40;99.90;;;;;;5058291;28;19935;-52
2023/04/28 03:40:16;;;;;;;;;;;3.40;99.90;;;;;;5058308;28;19916;-52
2023/04/28 03:43:00;;;;;;;;;;;3.50;99.90;;;;;;5076570;28;19919;-52
2023/04/28 03:45:31;;;;;;;;;;;3.60;99.90;;;;;;5091827;28;20352;-52
2023/04/28 03:47:57;;;;;;;;;;;3.60;99.90;;;;;;5058062;28;19912;-52
2023/04/28 03:50:24;;;;;;;;;;;3.60;99.90;;;;;;5076181;28;19916;-52
2023/04/28 03:52:50;;;;;;;;;;;3.70;99.90;;;;;;5058053;28;19917;-52
2023/04/28 03:55:16;;;;;;;;;;;3.60;99.90;;;;;;5058097;28;19927;-52
2023/04/28 03:57:42;;;;;;;;;;;3.50;99.90;;;;;;5058046;28;19916;-52
2023/04/28 04:00:08;;;;;;;;;;;3.50;99.90;;;;;;5075946;28;19916;-52
2023/04/28 04:02:41;;;;;;;;;;;3.40;99.90;;;;;;5075820;28;19913;-52
2023/04/28 04:05:07;;;;;;;;;;;3.50;99.90;;;;;;5091452;28;19969;-52
2023/04/28 04:07:32;;;;;;;;;;;3.70;99.90;;;;;;5057781;28;19916;-52
2023/04/28 04:09:58;;;;;;;;;;;3.80;99.90;;;;;;5091362;28;19962;-52
2023/04/28 04:12:24;;;;;;;;;;;3.60;99.90;;;;;;5057658;28;19912;-52
2023/04/28 04:14:50;;;;;;;;;;;3.60;99.90;;;;;;5075393;28;20370;-52
2023/04/28 04:17:17;;;;;;;;;;;3.50;99.90;;;;;;5091122;28;19955;-52
2023/04/28 04:19:43;;;;;;;;;;;3.50;99.90;;;;;;5057652;28;20388;-52
2023/04/28 04:22:10;;;;;;;;;;;3.50;99.90;;;;;;5057563;28;19917;-52
2023/04/28 04:24:36;;;;;;;;;;;3.50;99.90;;;;;;5091151;28;20286;-52
2023/04/28 04:27:02;;;;;;;;;;;3.50;99.90;;;;;;5075316;28;19958;-52
2023/04/28 04:29:39;;;;;;;;;;;3.50;99.90;;;;;;5057074;28;19969;-52
2023/04/28 04:32:11;;;;;;;;;;;3.60;99.90;;;;;;5056595;28;19912;-52
2023/04/28 04:34:38;;;;;;;;;;;3.60;99.90;;;;;;5057279;28;20368;-52
2023/04/28 04:37:04;;;;;;;;;;;3.60;99.90;;;;;;5057048;28;19923;-52
2023/04/28 04:39:30;;;;;;;;;;;3.70;99.90;;;;;;5090882;28;20025;-52
2023/04/28 04:41:56;;;;;;;;;;;3.80;99.90;;;;;;5090714;28;19931;-52
2023/04/28 04:44:38;;;;;;;;;;;3.90;99.90;;;;;;5090925;28;19912;-52
2023/04/28 04:47:10;;;;;;;;;;;4.00;99.90;;;;;;5057238;28;19947;-52
2023/04/28 04:49:36;;;;;;;;;;;4.10;99.90;;;;;;5056975;28;19962;-52
2023/04/28 04:52:02;;;;;;;;;;;4.20;99.90;;;;;;5090574;28;19917;-52
2023/04/28 04:54:29;;;;;;;;;;;4.40;99.90;;;;;;5057084;28;19928;-52
2023/04/28 04:56:57;;;;;;;;;;;4.60;99.90;;;;;;5057073;28;19934;-52
2023/04/28 04:59:42;;;;;;;;;;;4.60;99.90;;;;;;5074917;28;19973;-52
2023/04/28 05:02:12;;;;;;;;;;;4.70;99.90;;;;;;5090507;28;19919;-52
2023/04/28 05:04:38;;;;;;;;;;;4.80;99.90;;;;;;5090405;28;19916;-52
2023/04/28 05:07:05;;;;;;;;;;;5.00;99.90;;;;;;5040423;28;19919;-52
2023/04/28 05:09:32;;;;;;;;;;;5.10;99.90;;;;;;5090466;28;19909;-52
2023/04/28 05:11:58;;;;;;;;;;;5.10;99.90;;;;;;5090163;28;20397;-52
2023/04/28 05:14:25;;;;;;;;;;;5.20;99.90;;;;;;5090395;28;19913;-52
2023/04/28 05:16:51;;;;;;;;;;;5.40;99.90;;;;;;5056628;28;20406;-52
2023/04/28 05:19:23;;;;;;;;;;;5.50;99.90;;;;;;5056656;28;20382;-52
2023/04/28 05:21:52;;;;;;;;;;;5.60;99.90;;;;;;5056735;28;19913;-52
2023/04/28 05:24:22;;;;;;;;;;;5.60;99.90;;;;;;5090199;28;20366;-52
2023/04/28 05:26:48;;;;;;;;;;;5.70;99.90;;;;;;5056620;28;19938;-52
2023/04/28 05:29:13;;;;;;;;;;;5.90;99.90;;;;;;5074587;28;19916;-52
2023/04/28 05:31:39;;;;;;;;;;;6.00;99.90;;;;;;5054976;28;20264;-52
2023/04/28 05:34:05;;;;;;;;;;;6.20;99.90;;;;;;5089194;28;19913;-52
2023/04/28 05:36:31;;;;;;;;;;;6.30;99.90;;;;;;5056032;28;19925;-52
2023/04/28 05:38:57;;;;;;;;;;;6.50;99.90;;;;;;5074392;28;19984;-52
2023/04/28 05:41:23;;;;;;;;;;;6.80;99.90;;;;;;5056270;28;20400;-52
2023/04/28 05:43:50;;;;;;;;;;;6.60;99.90;;;;;;5058197;28;20007;-52
2023/04/28 05:46:16;;;;;;;;;;;6.80;99.90;;;;;;5078083;28;19912;-52
2023/04/28 05:48:50;;;;;;;;;;;7.00;99.90;;;;;;5060188;28;19913;-52
2023/04/28 05:51:17;;;;;;;;;;;7.20;99.90;;;;;;5060421;28;20313;-52
2023/04/28 05:53:43;;;;;;;;;;;7.60;99.90;;;;;;5077727;28;19913;-52
2023/04/28 05:56:08;;;;;;;;;;;7.90;99.90;;;;;;5078169;28;20385;-52
2023/04/28 05:58:35;;;;;;;;;;;8.00;99.90;;;;;;5078244;28;19912;-52
2023/04/28 06:01:01;;;;;;;;;;;8.20;99.90;;;;;;5078227;28;19958;-52
2023/04/28 06:03:27;;;;;;;;;;;8.40;99.90;;;;;;5059890;28;19912;-52
2023/04/28 06:05:53;;;;;;;;;;;8.40;99.90;;;;;;5078003;28;19955;-52
2023/04/28 06:08:21;;;;;;;;;;;8.70;99.90;;;;;;5059631;28;20075;-52
2023/04/28 06:10:47;;;;;;;;;;;8.90;99.90;;;;;;5059787;28;19913;-52
2023/04/28 06:13:13;;;;;;;;;;;9.00;99.80;;;;;;5059704;28;20097;-52
2023/04/28 06:15:40;;;;;;;;;;;9.30;99.90;;;;;;5059779;28;20014;-52
2023/04/28 06:18:08;;;;;;;;;;;9.50;98.30;;;;;;5077501;28;20021;-52
2023/04/28 06:20:34;;;;;;;;;;;9.70;98.30;;;;;;5059692;28;19940;-52
2023/04/28 06:23:02;;;;;;;;;;;9.90;96.80;;;;;;5077717;28;19980;-53
2023/04/28 06:25:28;;;;;;;;;;;10.30;96.10;;;;;;5059356;28;20003;-52
2023/04/28 06:27:54;;;;;;;;;;;10.60;95.50;;;;;;5057406;28;19916;-53
2023/04/28 06:30:21;;;;;;;;;;;10.80;94.50;;;;;;5076144;28;20434;-52
2023/04/28 06:32:46;;;;;;;;;;;11.10;94.60;;;;;;5077141;28;19931;-53
2023/04/28 06:35:12;;;;;;;;;;;11.20;93.10;;;;;;5059646;28;19924;-53
2023/04/28 06:37:38;;;;;;;;;;;11.50;92.20;;;;;;5077275;28;19916;-52
2023/04/28 06:40:04;;;;;;;;;;;11.80;92.70;;;;;;5058852;28;19916;-53
2023/04/28 06:42:30;;;;;;;;;;;12.20;91.50;;;;;;5059334;28;20003;-53
2023/04/28 06:45:04;;;;;;;;;;;12.40;89.20;;;;;;5059145;28;19916;-53
2023/04/28 06:47:30;;;;;;;;;;;12.60;85.10;;;;;;5077237;28;19920;-53
2023/04/28 06:49:56;;;;;;;;;;;12.90;87.20;;;;;;5076302;28;19916;-53
2023/04/28 06:52:22;;;;;;;;;;;13.30;86.30;;;;;;5077053;28;19913;-53
2023/04/28 06:54:51;;;;;;;;;;;13.60;85.40;;;;;;5074338;28;19925;-53
2023/04/28 06:57:17;;;;;;;;;;;14.00;84.70;;;;;;5076819;28;19957;-53
2023/04/28 06:59:43;;;;;;;;;;;14.30;82.20;;;;;;5076529;28;20380;-53
2023/04/28 07:02:09;;;;;;;;;;;14.50;79.00;;;;;;5076642;28;19995;-53
2023/04/28 07:04:35;;;;;;;;;;;14.50;76.40;;;;;;5092458;28;19962;-53
2023/04/28 07:07:01;;;;;;;;;;;14.80;76.10;;;;;;5076457;28;19958;-53
2023/04/28 07:09:27;;;;;;;;;;;15.10;75.50;;;;;;5076293;28;19920;-53
2023/04/28 07:11:53;;;;;;;;;;;15.20;72.90;;;;;;5076458;28;19908;-53
2023/04/28 07:14:19;;;;;;;;;;;15.60;73.20;;;;;;5076278;28;19959;-53
2023/04/28 07:16:45;;;;;;;;;;;15.70;72.30;;;;;;5076349;28;19912;-53
2023/04/28 07:19:10;;;;;;;;;;;16.00;72.70;;;;;;5076427;28;19916;-53
2023/04/28 07:21:36;;;;;;;;;;;16.10;71.70;;;;;;5076539;28;19920;-53
2023/04/28 07:24:02;;;;;;;;;;;16.10;71.50;;;;;;5076430;28;20305;-53
2023/04/28 07:26:28;;;;;;;;;;;16.80;70.70;;;;;;5076269;28;19916;-53
2023/04/28 07:28:53;;;;;;;;;;;17.40;70.20;;;;;;5076312;28;19916;-53
2023/04/28 07:31:20;;;;;;;;;;;17.50;67.70;;;;;;5076341;28;19918;-53
2023/04/28 07:33:46;;;;;;;;;;;17.70;66.70;;;;;;5076148;28;19963;-53
2023/04/28 07:36:12;;;;;;;;;;;17.90;65.70;;;;;;5076771;28;20374;-53
2023/04/28 07:38:38;;;;;;;;;;;18.10;63.60;;;;;;5077102;28;19966;-53
2023/04/28 07:41:03;;;;;;;;;;;18.20;60.40;;;;;;5076975;28;20011;-53
2023/04/28 07:43:29;;;;;;;;;;;18.50;61.80;;;;;;5076887;28;19912;-53
2023/04/28 07:45:55;;;;;;;;;;;18.60;59.00;;;;;;5076880;28;19916;-53
2023/04/28 07:48:21;;;;;;;;;;;18.50;59.20;;;;;;5076728;28;19919;-53
2023/04/28 07:50:47;;;;;;;;;;;18.70;58.90;;;;;;5076907;28;19968;-53
2023/04/28 07:53:13;;;;;;;;;;;18.80;56.60;;;;;;5058523;28;20281;-53
2023/04/28 07:55:40;;;;;;;;;;;18.90;56.90;;;;;;5076561;28;19923;-53
2023/04/28 07:58:07;;;;;;;;;;;19.50;56.30;;;;;;5076696;28;19942;-53
2023/04/28 08:00:32;;;;;;;;;;;19.80;54.60;;;;;;5075945;28;19973;-53
2023/04/28 08:02:58;;;;;;;;;;;20.00;53.30;;;;;;5075736;28;20335;-53
2023/04/28 08:05:24;;;;;;;;;;;20.20;54.10;;;;;;5075848;28;19979;-53
2023/04/28 08:07:50;;;;;;;;;;;20.30;51.90;;;;;;5075350;28;19913;-53
2023/04/28 08:10:16;;;;;;;;;;;20.50;52.80;;;;;;5075680;28;19922;-53
2023/04/28 08:12:43;;;;;;;;;;;20.80;51.10;;;;;;5075440;28;19912;-53
2023/04/28 08:15:10;;;;;;;;;;;21.00;48.30;;;;;;5075098;28;19986;-53
2023/04/28 08:17:36;;;;;;;;;;;21.20;48.60;;;;;;5075310;28;19924;-53
2023/04/28 08:20:02;;;;;;;;;;;21.40;46.80;;;;;;5075595;28;20381;-53
2023/04/28 08:22:27;;;;;;;;;;;21.50;44.60;;;;;;5075378;28;20146;-53
2023/04/28 08:24:53;;;;;;;;;;;21.70;44.00;;;;;;5075336;28;19917;-53
2023/04/28 08:27:19;;;;;;;;;;;21.90;44.20;;;;;;5075310;28;20025;-53
2023/04/28 08:29:45;;;;;;;;;;;22.10;42.80;;;;;;5075131;28;19939;-53
2023/04/28 08:32:11;;;;;;;;;;;22.40;41.80;;;;;;5075083;28;19947;-53
2023/04/28 08:34:37;;;;;;;;;;;22.20;40.20;;;;;;5072682;28;19919;-53
2023/04/28 08:37:03;;;;;;;;;;;22.10;41.80;;;;;;5075261;28;19941;-53
2023/04/28 08:39:30;;;;;;;;;;;22.00;39.80;;;;;;5075318;28;19981;-53
2023/04/28 08:41:56;;;;;;;;;;;22.00;41.50;;;;;;5075071;28;19917;-53
2023/04/28 08:44:22;;;;;;;;;;;21.50;37.50;;;;;;5074781;28;20270;-53
2023/04/28 08:46:48;;;;;;;;;;;21.00;39.80;;;;;;5075011;28;19919;-53
2023/04/28 08:49:15;;;;;;;;;;;21.40;39.40;;;;;;5075284;28;20034;-53
2023/04/28 08:51:59;;;;;;;;;;;21.30;37.10;;;;;;5074774;28;20034;-53
2023/04/28 08:54:29;;;;;;;;;;;21.00;37.70;;;;;;5074952;28;19919;-53
2023/04/28 08:56:55;;;;;;;;;;;21.30;39.70;;;;;;5074914;28;19948;-53
2023/04/28 08:59:22;;;;;;;;;;;21.70;38.50;;;;;;5074869;28;19920;-53
2023/04/28 09:01:48;;;;;;;;;;;22.40;39.10;;;;;;5075462;28;19989;-53
2023/04/28 09:04:15;;;;;;;;;;;23.20;39.30;;;;;;5075641;28;19923;-53
2023/04/28 09:06:41;;;;;;;;;;;23.20;35.80;;;;;;5075332;28;19912;-53
2023/04/28 09:09:19;;;;;;;;;;;23.30;39.10;;;;;;5075453;28;19976;-53
2023/04/28 09:11:58;;;;;;;;;;;24.00;37.70;;;;;;5075551;28;19951;-54
2023/04/28 09:14:25;;;;;;;;;;;24.20;38.70;;;;;;5075278;28;19952;-53
2023/04/28 09:16:51;;;;;;;;;;;24.50;36.40;;;;;;5075585;28;19966;-53
2023/04/28 09:19:17;;;;;;;;;;;23.70;38.00;;;;;;5074689;28;19920;-53
2023/04/28 09:21:51;;;;;;;;;;;24.00;38.90;;;;;;5074829;28;19939;-53
2023/04/28 09:24:30;;;;;;;;;;;24.40;37.80;;;;;;5074901;28;19919;-53
2023/04/28 09:26:57;;;;;;;;;;;24.10;35.40;;;;;;5074409;28;19913;-53
2023/04/28 09:29:23;;;;;;;;;;;24.80;38.10;;;;;;5074500;28;19912;-53
2023/04/28 09:31:49;;;;;;;;;;;24.70;33.80;;;;;;5074421;28;19921;-53
2023/04/28 09:34:14;;;;;;;;;;;24.30;37.80;;;;;;5074409;28;19920;-53
2023/04/28 09:36:40;;;;;;;;;;;24.90;36.20;;;;;;5074220;28;19920;-53
2023/04/28 09:39:06;;;;;;;;;;;25.00;36.20;;;;;;5074579;28;19916;-53
2023/04/28 09:41:39;;;;;;;;;;;24.90;36.10;;;;;;5074408;28;19993;-53
2023/04/28 09:44:11;;;;;;;;;;;24.70;36.00;;;;;;5074353;28;19912;-53
2023/04/28 09:46:37;;;;;;;;;;;25.00;35.50;;;;;;5074584;28;19912;-53
2023/04/28 09:49:03;;;;;;;;;;;25.10;34.20;;;;;;5074297;28;20412;-53
2023/04/28 09:51:28;;;;;;;;;;;25.50;37.30;;;;;;5074528;28;19916;-53
2023/04/28 09:53:58;;;;;;;;;;;26.20;35.60;;;;;;5074190;28;19964;-53
2023/04/28 09:56:26;;;;;;;;;;;25.70;34.50;;;;;;5073695;28;19921;-53
2023/04/28 09:58:52;;;;;;;;;;;25.90;35.30;;;;;;5074212;28;19991;-53
2023/04/28 10:01:24;;;;;;;;;;;25.20;32.60;;;;;;5074333;28;19919;-54
2023/04/28 10:03:52;;;;;;;;;;;24.80;33.80;;;;;;5074072;28;19919;-53
2023/04/28 10:06:18;;;;;;;;;;;25.40;36.30;;;;;;5074156;28;19912;-53
2023/04/28 10:08:47;;;;;;;;;;;24.80;33.20;;;;;;5074079;28;19916;-53
2023/04/28 10:11:16;;;;;;;;;;;25.00;34.60;;;;;;5074047;28;19920;-53
2023/04/28 10:13:45;;;;;;;;;;;24.70;33.10;;;;;;5074070;28;19924;-53
2023/04/28 10:16:12;;;;;;;;;;;25.40;33.10;;;;;;5073921;28;19916;-53
2023/04/28 10:18:38;;;;;;;;;;;25.10;33.60;;;;;;5073699;28;20377;-53
2023/04/28 10:21:04;;;;;;;;;;;25.10;35.80;;;;;;5074009;28;19954;-53
2023/04/28 10:23:46;;;;;;;;;;;25.90;36.10;;;;;;5073908;28;19920;-53
2023/04/28 10:26:15;;;;;;;;;;;25.70;36.60;;;;;;5074019;28;19999;-53
2023/04/28 10:28:45;;;;;;;;;;;25.10;33.00;;;;;;5073782;28;19920;-53
2023/04/28 10:31:11;;;;;;;;;;;24.90;33.90;;;;;;5075849;28;20316;-53
2023/04/28 10:33:38;;;;;;;;;;;24.50;33.90;;;;;;5077005;28;19912;-53
2023/04/28 10:36:05;;;;;;;;;;;24.60;33.50;;;;;;5077377;28;19916;-53
2023/04/28 10:38:31;;;;;;;;;;;24.80;34.30;;;;;;5077401;28;19912;-53
2023/04/28 10:41:01;;;;;;;;;;;25.50;34.30;;;;;;5077236;28;19924;-53
2023/04/28 10:43:38;;;;;;;;;;;25.20;32.70;;;;;;5077396;28;19912;-53
2023/04/28 10:46:10;;;;;;;;;;;24.80;36.00;;;;;;5076917;28;19924;-53
2023/04/28 10:48:48;;;;;;;;;;;25.20;34.10;;;;;;5077351;28;19913;-53
2023/04/28 10:51:13;;;;;;;;;;;25.00;37.50;;;;;;5077396;28;20296;-53
2023/04/28 10:53:47;;;;;;;;;;;25.80;34.40;;;;;;5077043;28;19940;-53
2023/04/28 10:56:20;;;;;;;;;;;25.60;34.40;;;;;;5076902;28;19916;-53
2023/04/28 10:58:49;;;;;;;;;;;24.30;33.50;;;;;;5077028;28;19916;-53
2023/04/28 11:01:18;;;;;;;;;;;25.00;35.00;;;;;;5077069;28;19912;-53
2023/04/28 11:03:49;;;;;;;;;;;24.80;34.40;;;;;;5076809;28;19920;-53
2023/04/28 11:06:25;;;;;;;;;;;24.20;32.80;;;;;;5076933;28;19920;-53
2023/04/28 11:08:56;;;;;;;;;;;22.80;37.00;;;;;;5076061;28;20266;-53
2023/04/28 11:11:25;;;;;;;;;;;23.90;37.90;;;;;;5077191;28;19956;-53
2023/04/28 11:13:53;;;;;;;;;;;24.30;37.10;;;;;;5078280;28;19920;-66
2023/04/28 11:16:20;;;;;;;;;;;24.90;35.50;;;;;;5077377;28;19916;-66
2023/04/28 11:18:55;;;;;;;;;;;23.80;34.50;;;;;;5076995;28;19917;-66
2023/04/28 11:21:22;;;;;;;;;;;24.30;36.60;;;;;;5076360;28;19919;-66
2023/04/28 11:23:48;;;;;;;;;;;25.10;36.60;;;;;;5076518;28;20350;-66
2023/04/28 11:26:14;;;;;;;;;;;25.40;34.80;;;;;;5076504;28;19916;-66
2023/04/28 11:28:50;;;;;;;;;;;25.20;33.60;;;;;;5076141;28;19917;-66
2023/04/28 11:31:21;;;;;;;;;;;24.60;33.60;;;;;;5076395;28;20361;-66
2023/04/28 11:33:55;;;;;;;;;;;24.20;34.60;;;;;;5076435;28;19920;-66
2023/04/28 11:36:30;;;;;;;;;;;23.50;37.40;;;;;;5074421;28;19970;-66
2023/04/28 11:38:56;;;;;;;;;;;24.00;36.40;;;;;;5076058;28;19921;-66
2023/04/28 11:41:22;;;;;;;;;;;24.80;37.10;;;;;;5075818;28;19919;-66
2023/04/28 11:43:57;;;;;;;;;;;25.00;36.70;;;;;;5075901;28;19913;-66
2023/04/28 11:46:24;;;;;;;;;;;25.20;34.80;;;;;;5077533;28;19927;-53
2023/04/28 11:49:03;;;;;;;;;;;25.20;34.10;;;;;;5076225;28;19919;-53
2023/04/28 11:51:33;;;;;;;;;;;25.00;37.70;;;;;;5075851;28;20489;-53
2023/04/28 11:54:00;;;;;;;;;;;25.60;36.20;;;;;;5075297;28;19962;-53
2023/04/28 11:56:26;;;;;;;;;;;25.70;34.30;;;;;;5075658;28;19935;-53
2023/04/28 11:59:04;;;;;;;;;;;25.60;34.40;;;;;;5075825;28;20185;-53
2023/04/28 12:01:30;;;;;;;;;;;25.70;33.70;;;;;;5075730;28;19924;-53
2023/04/28 12:03:56;;;;;;;;;;;24.60;33.50;;;;;;5075239;28;20076;-53
2023/04/28 12:06:22;;;;;;;;;;;24.90;34.10;;;;;;5075538;28;19919;-53
2023/04/28 12:08:48;;;;;;;;;;;25.40;34.20;;;;;;5075254;28;20302;-53
2023/04/28 12:11:14;;;;;;;;;;;25.70;34.60;;;;;;5075444;28;20384;-53
2023/04/28 12:13:40;;;;;;;;;;;25.80;33.00;;;;;;5075217;28;19912;-53
2023/04/28 12:16:06;;;;;;;;;;;25.40;34.20;;;;;;5075080;28;20559;-53
2023/04/28 12:18:35;;;;;;;;;;;25.60;33.60;;;;;;5075013;28;19966;-53
2023/04/28 12:21:02;;;;;;;;;;;25.30;32.50;;;;;;5075289;28;20012;-53
2023/04/28 12:23:31;;;;;;;;;;;25.10;32.80;;;;;;5075425;28;19913;-53
2023/04/28 12:25:57;;;;;;;;;;;24.30;33.00;;;;;;5075120;28;19948;-53
2023/04/28 12:28:24;;;;;;;;;;;23.30;33.50;;;;;;5074971;28;19941;-53
2023/04/28 12:31:02;;;;;;;;;;;23.20;34.60;;;;;;5075280;28;19908;-53
2023/04/28 12:33:28;;;;;;;;;;;22.60;34.20;;;;;;5075234;28;20006;-53
2023/04/28 12:35:57;;;;;;;;;;;23.30;34.60;;;;;;5075033;28;19924;-53
2023/04/28 12:38:23;;;;;;;;;;;23.90;34.90;;;;;;5075059;28;19909;-53
2023/04/28 12:40:49;;;;;;;;;;;23.40;35.90;;;;;;5074801;28;19939;-53
2023/04/28 12:43:15;;;;;;;;;;;23.70;36.60;;;;;;5074456;28;19913;-53
2023/04/28 12:45:42;;;;;;;;;;;24.10;38.40;;;;;;5074988;28;19924;-53
2023/04/28 12:48:08;;;;;;;;;;;24.40;37.00;;;;;;5074927;28;20366;-53
2023/04/28 12:50:33;;;;;;;;;;;24.70;36.40;;;;;;5074867;28;19916;-53
2023/04/28 12:52:59;;;;;;;;;;;24.80;34.40;;;;;;5073845;28;20306;-53
2023/04/28 12:55:29;;;;;;;;;;;24.20;34.70;;;;;;5074781;28;19967;-53
2023/04/28 12:57:54;;;;;;;;;;;23.60;33.70;;;;;;5074496;28;20290;-53
2023/04/28 13:00:22;;;;;;;;;;;24.20;37.30;;;;;;5074797;28;19912;-53
2023/04/28 13:02:49;;;;;;;;;;;24.10;33.80;;;;;;5074805;28;20293;-53
2023/04/28 13:05:18;;;;;;;;;;;23.60;35.10;;;;;;5074820;28;20011;-53
2023/04/28 13:07:44;;;;;;;;;;;24.20;34.40;;;;;;5074500;28;20483;-53
2023/04/28 13:10:10;;;;;;;;;;;24.30;34.50;;;;;;5074767;28;19916;-53
2023/04/28 13:12:35;;;;;;;;;;;24.10;33.20;;;;;;5074745;28;19919;-53
2023/04/28 13:15:01;;;;;;;;;;;24.70;35.00;;;;;;5074516;28;19923;-53
2023/04/28 13:17:27;;;;;;;;;;;25.10;36.30;;;;;;5074159;28;19970;-53
2023/04/28 13:19:53;;;;;;;;;;;25.00;34.80;;;;;;5074523;28;20331;-53
2023/04/28 13:22:20;;;;;;;;;;;23.90;33.40;;;;;;5074525;28;20262;-53
2023/04/28 13:24:48;;;;;;;;;;;24.20;35.90;;;;;;5074924;28;20298;-53
2023/04/28 13:27:14;;;;;;;;;;;24.30;35.90;;;;;;5074596;28;20350;-53
2023/04/28 13:29:40;;;;;;;;;;;24.50;34.30;;;;;;5074386;28;19912;-53
2023/04/28 13:32:05;;;;;;;;;;;24.40;33.90;;;;;;5074917;28;19912;-53
2023/04/28 13:34:31;;;;;;;;;;;24.50;34.20;;;;;;5074636;28;19912;-53
2023/04/28 13:36:57;;;;;;;;;;;24.40;33.90;;;;;;5074468;28;20003;-53
2023/04/28 13:39:23;;;;;;;;;;;24.80;36.10;;;;;;5074582;28;19913;-53
2023/04/28 13:41:49;;;;;;;;;;;24.60;35.50;;;;;;5074537;28;20330;-53
2023/04/28 13:44:15;;;;;;;;;;;24.00;34.50;;;;;;5074287;28;20003;-53
2023/04/28 13:46:41;;;;;;;;;;;23.50;34.40;;;;;;5074512;28;20003;-53
2023/04/28 13:49:10;;;;;;;;;;;23.60;36.30;;;;;;5074536;28;19908;-53
2023/04/28 13:51:36;;;;;;;;;;;23.50;35.50;;;;;;5074397;28;19912;-53
2023/04/28 13:54:10;;;;;;;;;;;23.90;37.00;;;;;;5074591;28;19912;-53
2023/04/28 13:56:36;;;;;;;;;;;24.10;37.80;;;;;;5074307;28;19917;-53
2023/04/28 13:59:01;;;;;;;;;;;23.50;34.70;;;;;;5074370;28;19912;-53
2023/04/28 14:01:27;;;;;;;;;;;23.40;37.20;;;;;;5074448;28;19918;-53
2023/04/28 14:03:53;;;;;;;;;;;23.40;37.70;;;;;;5074317;28;19920;-53
2023/04/28 14:06:19;;;;;;;;;;;23.40;38.10;;;;;;5078223;28;20354;-53
2023/04/28 14:08:45;;;;;;;;;;;23.50;37.60;;;;;;5078014;28;19912;-53
2023/04/28 14:11:11;;;;;;;;;;;23.40;38.00;;;;;;5078139;28;20452;-53
2023/04/28 14:13:37;;;;;;;;;;;23.20;37.30;;;;;;5077962;28;19924;-53
2023/04/28 14:16:02;;;;;;;;;;;23.10;36.80;;;;;;5077942;28;19913;-53
2023/04/28 14:18:28;;;;;;;;;;;23.20;38.60;;;;;;5077722;28;19924;-53
2023/04/28 14:20:54;;;;;;;;;;;23.10;38.10;;;;;;5077786;28;19917;-53
2023/04/28 14:23:21;;;;;;;;;;;23.40;38.50;;;;;;5077772;28;19912;-53
2023/04/28 14:25:47;;;;;;;;;;;23.40;38.20;;;;;;5077950;28;19924;-53